createdAt,value
2023-03-10T00:01:23.443Z,11.90
2023-03-10T00:03:52.023Z,11.90
2023-03-10T00:06:23.180Z,11.90
2023-03-10T00:08:51.767Z,11.90
2023-03-10T00:11:20.651Z,11.90
2023-03-10T00:13:49.456Z,11.90
2023-03-10T00:16:21.800Z,11.90
2023-03-10T00:18:50.932Z,11.90
2023-03-10T00:21:21.241Z,11.80
2023-03-10T00:23:49.848Z,11.90
2023-03-10T00:26:19.231Z,11.90
2023-03-10T00:28:48.039Z,11.80
2023-03-10T00:31:18.130Z,11.90
2023-03-10T00:33:47.668Z,11.90
2023-03-10T00:36:18.337Z,11.80
2023-03-10T00:38:47.362Z,11.90
2023-03-10T00:41:17.816Z,11.90
2023-03-10T00:43:46.668Z,11.90
2023-03-10T00:46:15.156Z,11.90
2023-03-10T00:48:43.851Z,11.90
2023-03-10T00:51:13.858Z,11.90
2023-03-10T00:53:43.402Z,11.90
2023-03-10T00:56:14.515Z,11.90
2023-03-10T00:58:43.338Z,11.90
2023-03-10T01:01:15.414Z,11.90
2023-03-10T01:03:44.089Z,11.90
2023-03-10T01:06:14.527Z,11.90
2023-03-10T01:08:42.678Z,11.90
2023-03-10T01:11:12.474Z,11.90
2023-03-10T01:13:41.138Z,11.90
2023-03-10T01:16:10.151Z,11.90
2023-03-10T01:18:38.743Z,11.90
2023-03-10T01:21:07.998Z,11.80
2023-03-10T01:23:37.914Z,11.90
2023-03-10T01:26:06.705Z,11.90
2023-03-10T01:28:35.281Z,11.80
2023-03-10T01:31:05.462Z,11.90
2023-03-10T01:33:34.537Z,11.90
2023-03-10T01:36:02.761Z,11.80
2023-03-10T01:38:30.852Z,11.80
2023-03-10T01:41:00.746Z,11.80
2023-03-10T01:43:30.988Z,11.80
2023-03-10T01:46:44.735Z,11.80
2023-03-10T01:49:37.202Z,11.90
2023-03-10T01:52:11.841Z,11.80
2023-03-10T01:54:50.139Z,11.90
2023-03-10T01:57:23.726Z,11.80
2023-03-10T01:59:53.172Z,11.90
2023-03-10T02:02:21.778Z,11.80
2023-03-10T02:04:51.066Z,11.80
2023-03-10T02:07:22.274Z,11.90
2023-03-10T02:09:52.265Z,11.80
2023-03-10T02:12:22.503Z,11.90
2023-03-10T02:14:52.192Z,11.80
2023-03-10T02:17:23.672Z,11.90
2023-03-10T02:20:15.154Z,11.80
2023-03-10T02:22:44.004Z,11.90
2023-03-10T02:25:27.691Z,11.80
2023-03-10T02:27:58.585Z,11.80
2023-03-10T02:30:31.675Z,11.80
2023-03-10T02:33:04.050Z,11.80
2023-03-10T02:35:32.195Z,11.80
2023-03-10T02:38:00.788Z,11.80
2023-03-10T02:40:35.642Z,11.80
2023-03-10T02:43:09.328Z,11.80
2023-03-10T02:45:40.454Z,11.80
2023-03-10T02:48:10.122Z,11.80
2023-03-10T02:50:40.182Z,11.80
2023-03-10T02:53:13.402Z,11.80
2023-03-10T02:55:42.245Z,11.80
2023-03-10T02:58:12.101Z,11.80
2023-03-10T03:00:41.545Z,11.80
2023-03-10T03:03:10.205Z,11.70
2023-03-10T03:05:39.190Z,11.70
2023-03-10T03:08:08.649Z,11.70
2023-03-10T03:10:37.787Z,11.70
2023-03-10T03:13:06.883Z,11.70
2023-03-10T03:15:37.509Z,11.70
2023-03-10T03:18:06.511Z,11.70
2023-03-10T03:20:37.140Z,11.70
2023-03-10T03:23:06.348Z,11.70
2023-03-10T03:25:37.770Z,11.70
2023-03-10T03:28:07.521Z,11.70
2023-03-10T03:30:38.857Z,11.70
2023-03-10T03:33:08.205Z,11.70
2023-03-10T03:35:38.666Z,11.70
2023-03-10T03:38:07.761Z,11.70
2023-03-10T03:40:37.866Z,11.70
2023-03-10T03:43:07.012Z,11.70
2023-03-10T03:45:36.395Z,11.70
2023-03-10T03:48:05.534Z,11.60
2023-03-10T03:50:33.598Z,11.60
2023-03-10T03:53:01.670Z,11.60
2023-03-10T03:55:30.447Z,11.60
2023-03-10T03:57:58.487Z,11.60
2023-03-10T04:00:27.412Z,11.60
2023-03-10T04:02:56.850Z,11.60
2023-03-10T04:05:25.341Z,11.60
2023-03-10T04:07:53.485Z,11.50
2023-03-10T04:10:24.122Z,11.50
2023-03-10T04:12:52.626Z,11.50
2023-03-10T04:15:21.583Z,11.50
2023-03-10T04:17:50.092Z,11.50
2023-03-10T04:20:20.142Z,11.50
2023-03-10T04:22:48.155Z,11.50
2023-03-10T04:25:16.629Z,11.50
2023-03-10T04:27:45.108Z,11.50
2023-03-10T04:30:15.389Z,11.50
2023-03-10T04:32:43.639Z,11.50
2023-03-10T04:35:14.304Z,11.50
2023-03-10T04:37:44.916Z,11.50
2023-03-10T04:40:16.352Z,11.50
2023-03-10T04:42:44.378Z,11.50
2023-03-10T04:45:13.698Z,11.50
2023-03-10T04:47:42.014Z,11.40
2023-03-10T04:50:12.942Z,11.50
2023-03-10T04:52:42.125Z,11.50
2023-03-10T04:55:12.865Z,11.40
2023-03-10T04:57:40.961Z,11.50
2023-03-10T05:00:13.071Z,11.50
2023-03-10T05:02:41.792Z,11.50
2023-03-10T05:05:12.125Z,11.50
2023-03-10T05:07:40.755Z,11.50
2023-03-10T05:10:09.797Z,11.50
2023-03-10T05:12:42.238Z,11.50
2023-03-10T05:15:11.775Z,11.50
2023-03-10T05:17:39.784Z,11.50
2023-03-10T05:20:09.654Z,11.50
2023-03-10T05:22:38.273Z,11.50
2023-03-10T05:25:07.739Z,11.60
2023-03-10T05:27:37.032Z,11.60
2023-03-10T05:30:08.964Z,11.60
2023-03-10T05:32:38.533Z,11.60
2023-03-10T05:35:08.016Z,11.60
2023-03-10T05:37:39.386Z,11.60
2023-03-10T05:40:09.063Z,11.70
2023-03-10T05:42:37.605Z,11.70
2023-03-10T05:45:09.044Z,11.70
2023-03-10T05:47:37.062Z,11.70
2023-03-10T05:50:05.739Z,11.70
2023-03-10T05:52:37.655Z,11.70
2023-03-10T05:55:07.031Z,11.70
2023-03-10T05:57:35.567Z,11.70
2023-03-10T06:00:04.132Z,11.70
2023-03-10T06:02:33.505Z,11.70
2023-03-10T06:05:01.984Z,11.70
2023-03-10T06:07:30.021Z,11.70
2023-03-10T06:09:58.203Z,11.70
2023-03-10T06:12:26.308Z,11.70
2023-03-10T06:14:54.682Z,11.70
2023-03-10T06:17:22.713Z,11.70
2023-03-10T06:19:52.561Z,11.70
2023-03-10T06:22:20.604Z,11.70
2023-03-10T06:24:49.132Z,11.70
2023-03-10T06:27:17.197Z,11.70
2023-03-10T06:29:46.078Z,11.70
2023-03-10T06:32:14.707Z,11.70
2023-03-10T06:34:43.338Z,11.70
2023-03-10T06:37:12.730Z,11.70
2023-03-10T06:39:41.654Z,11.70
2023-03-10T06:42:09.920Z,11.70
2023-03-10T06:44:38.102Z,11.70
2023-03-10T06:47:06.505Z,11.70
2023-03-10T06:49:35.495Z,11.80
2023-03-10T06:52:03.544Z,11.70
2023-03-10T06:54:32.926Z,11.70
2023-03-10T06:57:01.475Z,11.80
2023-03-10T06:59:32.304Z,11.80
2023-03-10T07:02:00.792Z,11.80
2023-03-10T07:04:28.888Z,11.80
2023-03-10T07:06:57.979Z,11.80
2023-03-10T07:09:26.447Z,11.80
2023-03-10T07:11:55.963Z,11.80
2023-03-10T07:14:24.026Z,11.80
2023-03-10T07:16:52.528Z,11.80
2023-03-10T07:19:20.987Z,11.80
2023-03-10T07:21:49.070Z,11.80
2023-03-10T07:24:17.644Z,11.80
2023-03-10T07:26:46.180Z,11.80
2023-03-10T07:29:16.064Z,11.80
2023-03-10T07:31:45.523Z,11.80
2023-03-10T07:34:14.037Z,11.90
2023-03-10T07:36:42.109Z,11.90
2023-03-10T07:39:10.805Z,11.90
2023-03-10T07:41:39.299Z,12.00
2023-03-10T07:44:07.462Z,12.00
2023-03-10T07:46:37.428Z,11.90
2023-03-10T07:49:05.958Z,12.00
2023-03-10T07:51:34.612Z,12.00
2023-03-10T07:54:02.665Z,12.00
2023-03-10T07:56:31.151Z,12.00
2023-03-10T07:59:00.417Z,12.00
2023-03-10T08:01:28.482Z,12.00
2023-03-10T08:03:58.513Z,12.10
2023-03-10T08:06:29.568Z,12.10
2023-03-10T08:08:58.553Z,12.10
2023-03-10T08:11:27.566Z,12.10
2023-03-10T08:13:56.271Z,12.10
2023-03-10T08:16:25.149Z,12.20
2023-03-10T08:18:55.177Z,12.20
2023-03-10T08:21:24.589Z,12.20
2023-03-10T08:23:53.086Z,12.20
2023-03-10T08:26:21.238Z,12.20
2023-03-10T08:28:49.691Z,12.20
2023-03-10T08:31:20.586Z,12.30
2023-03-10T08:33:49.145Z,12.30
2023-03-10T08:36:19.505Z,12.40
2023-03-10T08:38:50.194Z,12.40
2023-03-10T08:41:21.383Z,12.40
2023-03-10T08:43:50.437Z,12.50
2023-03-10T08:46:19.588Z,12.50
2023-03-10T08:48:48.145Z,12.60
2023-03-10T08:51:19.160Z,12.60
2023-03-10T08:53:50.955Z,12.70
2023-03-10T08:56:21.019Z,12.70
2023-03-10T08:58:49.697Z,12.70
2023-03-10T09:01:18.628Z,12.80
2023-03-10T09:03:47.856Z,12.80
2023-03-10T09:06:16.556Z,12.80
2023-03-10T09:08:45.194Z,12.80
2023-03-10T09:11:19.515Z,12.90
2023-03-10T09:13:48.708Z,12.90
2023-03-10T09:16:17.080Z,12.90
2023-03-10T09:18:45.268Z,12.90
2023-03-10T09:21:15.667Z,13.00
2023-03-10T09:23:47.730Z,13.00
2023-03-10T09:26:17.341Z,13.00
2023-03-10T09:28:45.848Z,13.10
2023-03-10T09:31:18.484Z,13.10
2023-03-10T09:33:48.376Z,13.20
2023-03-10T09:36:17.372Z,13.20
2023-03-10T09:38:46.701Z,13.20
2023-03-10T09:41:38.403Z,13.30
2023-03-10T09:44:24.190Z,13.30
2023-03-10T09:47:03.086Z,13.30
2023-03-10T09:49:37.374Z,13.30
2023-03-10T09:52:19.125Z,13.40
2023-03-10T09:54:56.613Z,13.40
2023-03-10T09:57:27.031Z,13.40
2023-03-10T09:59:59.667Z,13.40
2023-03-10T10:02:31.714Z,13.40
2023-03-10T10:05:04.116Z,13.40
2023-03-10T10:07:42.290Z,13.40
2023-03-10T10:10:18.057Z,13.40
2023-03-10T10:12:48.187Z,13.40
2023-03-10T10:15:19.326Z,13.40
2023-03-10T10:18:08.579Z,13.30
2023-03-10T10:20:49.148Z,13.30
2023-03-10T10:23:22.366Z,13.20
2023-03-10T10:25:50.591Z,13.20
2023-03-10T10:28:42.180Z,13.10
2023-03-10T10:31:17.519Z,13.00
2023-03-10T10:33:57.754Z,13.00
2023-03-10T10:36:27.887Z,12.90
2023-03-10T10:38:57.489Z,12.80
2023-03-10T10:41:30.893Z,12.70
2023-03-10T10:44:07.598Z,12.70
2023-03-10T10:46:36.224Z,12.60
2023-03-10T10:49:20.028Z,12.60
2023-03-10T10:51:59.892Z,12.60
2023-03-10T10:54:30.773Z,12.60
2023-03-10T10:57:00.495Z,12.60
2023-03-10T10:59:31.893Z,12.60
2023-03-10T11:02:01.811Z,12.60
2023-03-10T11:04:41.979Z,12.60
2023-03-10T11:07:12.766Z,12.60
2023-03-10T11:09:41.275Z,12.70
2023-03-10T11:12:17.751Z,12.70
2023-03-10T11:14:57.875Z,12.70
2023-03-10T11:17:29.766Z,12.70
2023-03-10T11:20:05.972Z,12.70
2023-03-10T11:22:46.199Z,12.80
2023-03-10T11:25:26.646Z,12.80
2023-03-10T11:28:19.385Z,12.90
2023-03-10T11:30:57.726Z,13.00
2023-03-10T11:33:34.060Z,13.10
2023-03-10T11:36:13.289Z,13.30
2023-03-10T11:38:45.751Z,13.50
2023-03-10T11:41:16.154Z,13.70
2023-03-10T11:44:00.201Z,13.80
2023-03-10T11:46:35.201Z,14.00
2023-03-10T11:49:09.262Z,14.00
2023-03-10T11:51:42.093Z,14.10
2023-03-10T11:54:17.832Z,14.20
2023-03-10T11:56:47.278Z,14.20
2023-03-10T11:59:18.945Z,14.20
2023-03-10T12:01:54.293Z,14.20
2023-03-10T12:04:26.232Z,14.30
2023-03-10T12:06:59.101Z,14.30
2023-03-10T12:09:34.308Z,14.30
2023-03-10T12:12:05.504Z,14.30
2023-03-10T12:14:35.637Z,14.30
2023-03-10T12:17:05.960Z,14.20
2023-03-10T12:19:34.061Z,14.20
2023-03-10T12:22:38.760Z,14.20
2023-03-10T12:25:49.569Z,14.20
2023-03-10T12:28:26.731Z,14.20
2023-03-10T12:30:57.503Z,14.10
2023-03-10T12:34:10.032Z,14.10
2023-03-10T12:36:40.329Z,14.20
2023-03-10T12:39:34.660Z,14.20
2023-03-10T12:42:04.166Z,14.20
2023-03-10T12:44:51.146Z,14.30
2023-03-10T12:47:36.756Z,14.30
2023-03-10T12:50:23.236Z,14.20
2023-03-10T12:52:57.797Z,14.20
2023-03-10T12:55:27.281Z,14.20
2023-03-10T12:58:02.668Z,14.20
2023-03-10T13:00:40.130Z,14.10
2023-03-10T13:03:19.433Z,14.10
2023-03-10T13:06:01.888Z,14.10
2023-03-10T13:08:38.561Z,14.20
2023-03-10T13:11:14.155Z,14.30
2023-03-10T13:13:43.223Z,14.60
2023-03-10T13:16:18.921Z,14.70
2023-03-10T13:18:50.196Z,15.00
2023-03-10T13:21:31.285Z,15.20
2023-03-10T13:24:01.221Z,15.30
2023-03-10T13:26:30.170Z,15.50
2023-03-10T13:29:00.578Z,15.50
2023-03-10T13:31:29.950Z,15.50
2023-03-10T13:33:59.334Z,15.50
2023-03-10T13:36:36.911Z,15.40
2023-03-10T13:39:16.305Z,15.30
2023-03-10T13:41:47.266Z,15.30
2023-03-10T13:44:19.869Z,15.20
2023-03-10T13:46:50.788Z,15.10
2023-03-10T13:49:21.855Z,15.00
2023-03-10T13:51:57.219Z,14.90
2023-03-10T13:54:27.427Z,14.80
2023-03-10T13:56:58.053Z,14.70
2023-03-10T13:59:28.986Z,14.60
2023-03-10T14:02:00.353Z,14.60
2023-03-10T14:04:43.176Z,14.50
2023-03-10T14:07:15.298Z,14.50
2023-03-10T14:09:43.315Z,14.50
2023-03-10T14:12:12.454Z,14.50
2023-03-10T14:14:41.753Z,14.50
2023-03-10T14:17:11.984Z,14.60
2023-03-10T14:19:51.114Z,14.60
2023-03-10T14:22:35.807Z,14.60
2023-03-10T14:25:09.501Z,14.60
2023-03-10T14:27:41.708Z,14.60
2023-03-10T14:30:30.212Z,14.50
2023-03-10T14:32:59.946Z,14.50
2023-03-10T14:35:29.905Z,14.50
2023-03-10T14:37:59.995Z,14.40
2023-03-10T14:40:28.131Z,14.30
2023-03-10T14:42:59.057Z,14.30
2023-03-10T14:45:30.583Z,14.20
2023-03-10T14:48:00.531Z,14.10
2023-03-10T14:50:30.494Z,14.10
2023-03-10T14:53:00.406Z,14.00
2023-03-10T14:55:28.789Z,14.00
2023-03-10T14:58:01.467Z,14.00
2023-03-10T15:00:29.961Z,13.90
2023-03-10T15:02:58.782Z,13.80
2023-03-10T15:05:45.105Z,13.80
2023-03-10T15:08:16.909Z,13.70
2023-03-10T15:10:48.743Z,13.60
2023-03-10T15:13:19.113Z,13.60
2023-03-10T15:15:49.401Z,13.50
2023-03-10T15:18:19.595Z,13.50
2023-03-10T15:20:48.185Z,13.40
2023-03-10T15:23:19.957Z,13.40
2023-03-10T15:25:49.307Z,13.40
2023-03-10T15:28:17.364Z,13.30
2023-03-10T15:30:45.709Z,13.30
2023-03-10T15:33:14.369Z,13.20
2023-03-10T15:35:43.500Z,13.10
2023-03-10T15:38:15.227Z,13.10
2023-03-10T15:40:45.245Z,13.00
2023-03-10T15:43:13.501Z,13.00
2023-03-10T15:45:44.207Z,13.00
2023-03-10T15:48:12.297Z,12.90
2023-03-10T15:50:43.835Z,12.80
2023-03-10T15:53:12.474Z,12.70
2023-03-10T15:55:42.044Z,12.70
2023-03-10T15:58:12.788Z,12.70
2023-03-10T16:00:42.334Z,12.70
2023-03-10T16:03:11.542Z,12.60
2023-03-10T16:05:40.020Z,12.60
2023-03-10T16:08:08.519Z,12.50
2023-03-10T16:10:38.750Z,12.50
2023-03-10T16:13:06.969Z,12.50
2023-03-10T16:15:39.410Z,12.40
2023-03-10T16:18:07.462Z,12.40
2023-03-10T16:20:35.950Z,12.40
2023-03-10T16:23:03.950Z,12.40
2023-03-10T16:25:32.491Z,12.30
2023-03-10T16:28:01.418Z,12.30
2023-03-10T16:30:30.513Z,12.30
2023-03-10T16:33:01.797Z,12.20
2023-03-10T16:35:30.440Z,12.20
2023-03-10T16:38:02.089Z,12.20
2023-03-10T16:40:30.089Z,12.20
2023-03-10T16:42:58.097Z,12.20
2023-03-10T16:45:26.665Z,12.10
2023-03-10T16:47:54.671Z,12.20
2023-03-10T16:50:24.566Z,12.20
2023-03-10T16:52:56.609Z,12.10
2023-03-10T16:55:25.249Z,12.10
2023-03-10T16:57:53.733Z,12.10
2023-03-10T17:00:22.857Z,12.00
2023-03-10T17:02:51.417Z,12.00
2023-03-10T17:05:20.019Z,12.00
2023-03-10T17:07:55.876Z,11.90
2023-03-10T17:10:26.546Z,11.90
2023-03-10T17:12:56.070Z,11.80
2023-03-10T17:15:24.386Z,11.80
2023-03-10T17:17:52.954Z,11.80
2023-03-10T17:20:21.550Z,11.70
2023-03-10T17:22:51.435Z,11.70
2023-03-10T17:25:20.180Z,11.70
2023-03-10T17:27:49.561Z,11.60
2023-03-10T17:30:20.008Z,12.40
2023-03-10T17:32:50.410Z,11.60
2023-03-10T17:35:18.773Z,11.50
2023-03-10T17:37:47.484Z,11.50
2023-03-10T17:40:18.931Z,11.50
2023-03-10T17:42:47.532Z,11.50
2023-03-10T17:45:15.638Z,11.40
2023-03-10T17:47:43.659Z,11.40
2023-03-10T17:50:13.311Z,11.30
2023-03-10T17:52:41.834Z,11.30
2023-03-10T17:55:10.238Z,11.30
2023-03-10T17:57:41.143Z,11.20
2023-03-10T18:00:12.184Z,11.20
2023-03-10T18:02:40.478Z,11.20
2023-03-10T18:05:09.301Z,11.10
2023-03-10T18:07:37.833Z,11.10
2023-03-10T18:10:08.541Z,11.10
2023-03-10T18:12:37.076Z,11.10
2023-03-10T18:15:07.859Z,11.10
2023-03-10T18:17:36.094Z,11.00
2023-03-10T18:20:06.350Z,11.00
2023-03-10T18:22:35.048Z,11.00
2023-03-10T18:25:03.482Z,11.00
2023-03-10T18:27:32.825Z,11.00
2023-03-10T18:30:01.418Z,11.00
2023-03-10T18:32:31.661Z,11.00
2023-03-10T18:35:00.226Z,11.00
2023-03-10T18:37:29.744Z,11.00
2023-03-10T18:39:58.883Z,11.00
2023-03-10T18:42:27.935Z,11.00
2023-03-10T18:44:56.349Z,11.00
2023-03-10T18:47:25.461Z,11.00
2023-03-10T18:49:54.823Z,11.00
2023-03-10T18:52:23.591Z,11.00
2023-03-10T18:54:51.771Z,10.90
2023-03-10T18:57:20.433Z,10.90
2023-03-10T18:59:49.023Z,10.90
2023-03-10T19:02:17.309Z,10.90
2023-03-10T19:04:47.762Z,10.90
2023-03-10T19:07:21.062Z,10.90
2023-03-10T19:09:54.088Z,10.90
2023-03-10T19:12:23.360Z,10.80
2023-03-10T19:14:54.923Z,10.80
2023-03-10T19:17:26.496Z,10.80
2023-03-10T19:19:55.239Z,10.80
2023-03-10T19:22:24.653Z,10.80
2023-03-10T19:24:53.153Z,10.80
2023-03-10T19:27:21.212Z,10.70
2023-03-10T19:29:53.534Z,10.70
2023-03-10T19:32:22.138Z,10.70
2023-03-10T19:34:50.189Z,10.70
2023-03-10T19:37:18.686Z,10.70
2023-03-10T19:39:48.524Z,10.60
2023-03-10T19:42:16.547Z,10.60
2023-03-10T19:44:44.599Z,10.60
2023-03-10T19:47:13.264Z,10.60
2023-03-10T19:49:41.306Z,10.50
2023-03-10T19:52:09.334Z,10.50
2023-03-10T19:54:38.215Z,10.50
2023-03-10T19:57:12.933Z,10.50
2023-03-10T19:59:42.073Z,10.50
2023-03-10T20:02:14.649Z,10.50
2023-03-10T20:04:42.926Z,10.40
2023-03-10T20:07:12.952Z,10.40
2023-03-10T20:09:41.829Z,10.40
2023-03-10T20:12:11.246Z,10.40
2023-03-10T20:14:39.353Z,10.40
2023-03-10T20:17:08.591Z,10.30
2023-03-10T20:19:36.664Z,10.30
2023-03-10T20:22:05.293Z,10.30
2023-03-10T20:24:33.851Z,10.30
2023-03-10T20:27:03.215Z,10.30
2023-03-10T20:29:32.960Z,10.30
2023-03-10T20:32:01.081Z,10.20
2023-03-10T20:34:29.229Z,10.20
2023-03-10T20:36:57.370Z,10.20
2023-03-10T20:39:26.268Z,10.20
2023-03-10T20:41:54.815Z,10.20
2023-03-10T20:44:22.868Z,10.20
2023-03-10T20:46:52.271Z,10.20
2023-03-10T20:49:20.595Z,10.20
2023-03-10T20:51:48.745Z,10.10
2023-03-10T20:54:17.777Z,10.10
2023-03-10T20:56:46.113Z,10.10
2023-03-10T20:59:14.646Z,10.10
2023-03-10T21:01:43.200Z,10.10
2023-03-10T21:04:13.125Z,10.00
2023-03-10T21:06:41.244Z,10.00
2023-03-10T21:09:09.768Z,9.90
2023-03-10T21:11:37.846Z,9.80
2023-03-10T21:14:06.786Z,9.70
2023-03-10T21:16:39.607Z,9.70
2023-03-10T21:19:08.119Z,9.60
2023-03-10T21:21:38.222Z,9.50
2023-03-10T21:24:06.864Z,9.40
2023-03-10T21:26:36.397Z,9.30
2023-03-10T21:29:06.145Z,9.20
2023-03-10T21:31:34.656Z,9.10
2023-03-10T21:34:03.121Z,9.00
2023-03-10T21:36:32.513Z,9.00
2023-03-10T21:39:02.917Z,8.90
2023-03-10T21:41:32.080Z,8.80
2023-03-10T21:44:00.498Z,8.70
2023-03-10T21:46:29.226Z,8.70
2023-03-10T21:48:57.421Z,8.70
2023-03-10T21:51:26.798Z,8.60
2023-03-10T21:53:55.942Z,8.60
2023-03-10T21:56:28.319Z,8.50
2023-03-10T21:58:57.990Z,8.50
2023-03-10T22:01:27.443Z,8.40
2023-03-10T22:03:56.023Z,8.30
2023-03-10T22:06:24.120Z,8.30
2023-03-10T22:08:52.656Z,8.20
2023-03-10T22:11:20.769Z,8.20
2023-03-10T22:13:50.671Z,8.10
2023-03-10T22:16:19.020Z,8.10
2023-03-10T22:18:47.807Z,8.00
2023-03-10T22:21:16.471Z,8.00
2023-03-10T22:23:45.229Z,8.00
2023-03-10T22:26:14.324Z,7.90
2023-03-10T22:28:42.364Z,7.90
2023-03-10T22:31:12.034Z,7.90
2023-03-10T22:33:40.597Z,7.90
2023-03-10T22:36:12.760Z,7.90
2023-03-10T22:38:40.990Z,7.90
2023-03-10T22:41:11.644Z,7.80
2023-03-10T22:43:40.270Z,7.80
2023-03-10T22:46:12.174Z,7.80
2023-03-10T22:48:41.016Z,7.80
2023-03-10T22:51:10.435Z,7.80
2023-03-10T22:53:38.862Z,7.70
2023-03-10T22:56:07.725Z,7.70
2023-03-10T22:58:36.046Z,7.70
2023-03-10T23:01:04.687Z,7.70
2023-03-10T23:03:35.741Z,7.70
2023-03-10T23:06:05.562Z,7.70
2023-03-10T23:08:34.356Z,7.70
2023-03-10T23:11:02.877Z,7.70
2023-03-10T23:13:31.016Z,7.70
2023-03-10T23:16:00.687Z,7.70
2023-03-10T23:18:29.213Z,7.70
2023-03-10T23:20:58.777Z,7.70
2023-03-10T23:23:26.864Z,7.70
2023-03-10T23:25:55.406Z,7.60
2023-03-10T23:28:23.453Z,7.60
2023-03-10T23:30:54.644Z,7.60
2023-03-10T23:33:24.200Z,7.60
2023-03-10T23:35:54.638Z,7.60
2023-03-10T23:38:25.530Z,7.50
2023-03-10T23:40:55.819Z,7.50
2023-03-10T23:43:24.435Z,7.50
2023-03-10T23:45:52.958Z,7.50
2023-03-10T23:48:23.564Z,7.50
2023-03-10T23:50:52.185Z,7.50
2023-03-10T23:53:20.989Z,7.50
2023-03-10T23:55:51.435Z,7.50
2023-03-10T23:58:21.223Z,7.40
